Time;durP1;ratioP1;P1;durP2;ratioP2;P2;SDS_P1;SDS_P2;PMS_P1;PMS_P2;Temp;Humidity;BMP_temperature;BMP_pressure;BME280_temperature;BME280_humidity;BME280_pressure;Samples;Min_cycle;Max_cycle;Signal;HPM_P1;HPM_P2
2023/01/14 00:01:52;;;;;;;17.38;6.93;;;;;;;8.25;72.35;99579.69;5131920;27;20027;-46
2023/01/14 00:04:17;;;;;;;16.58;7.55;;;;;;;8.45;72.46;99574.97;5133311;27;20484;-46
2023/01/14 00:06:43;;;;;;;16.00;11.45;;;;;;;8.64;70.52;99576.44;5133152;27;20432;-46
2023/01/14 00:09:13;;;;;;;18.48;11.05;;;;;;;8.78;69.89;99565.28;5131844;27;20397;-46
2023/01/14 00:11:45;;;;;;;18.38;7.05;;;;;;;8.91;70.39;99562.94;5133117;27;20024;-46
2023/01/14 00:14:23;;;;;;;18.33;7.13;;;;;;;8.80;70.45;99556.28;5133172;27;20049;-47
2023/01/14 00:16:50;;;;;;;17.88;6.97;;;;;;;8.56;70.48;99553.72;5133066;27;20024;-46
2023/01/14 00:19:16;;;;;;;25.10;7.90;;;;;;;8.33;71.37;99551.75;5133047;27;20026;-46
2023/01/14 00:21:43;;;;;;;16.90;6.82;;;;;;;8.25;71.20;99543.91;5131419;27;20047;-46
2023/01/14 00:24:11;;;;;;;14.95;6.75;;;;;;;8.04;71.76;99541.75;5132922;27;20105;-46
2023/01/14 00:26:37;;;;;;;17.63;6.97;;;;;;;7.78;72.45;99536.66;5131552;27;20058;-46
2023/01/14 00:29:03;;;;;;;19.27;8.32;;;;;;;7.53;73.84;99538.44;5132889;27;20027;-46
2023/01/14 00:31:29;;;;;;;16.00;7.90;;;;;;;7.29;74.64;99537.38;5131601;27;20023;-46
2023/01/14 00:33:59;;;;;;;21.08;9.68;;;;;;;7.23;74.85;99537.19;5132880;27;20046;-46
2023/01/14 00:36:26;;;;;;;20.17;8.98;;;;;;;7.06;76.06;99537.09;5132753;27;20033;-46
2023/01/14 00:38:53;;;;;;;23.80;9.77;;;;;;;7.04;76.09;99540.84;5131497;27;20030;-46
2023/01/14 00:41:25;;;;;;;19.60;9.93;;;;;;;6.92;76.73;99535.09;5131531;27;20022;-46
2023/01/14 00:43:54;;;;;;;19.75;9.00;;;;;;;6.89;77.05;99541.44;5149532;27;20035;-46
2023/01/14 00:46:33;;;;;;;14.85;8.35;;;;;;;6.95;77.43;99538.22;5132704;27;20065;-46
2023/01/14 00:49:01;;;;;;;18.05;8.38;;;;;;;7.07;77.22;99532.72;5131294;28;20031;-46
2023/01/14 00:51:28;;;;;;;12.70;7.20;;;;;;;7.17;77.61;99531.63;5132722;27;20041;-46
2023/01/14 00:53:54;;;;;;;23.85;8.32;;;;;;;7.34;77.23;99532.47;5131621;28;20031;-46
2023/01/14 00:56:22;;;;;;;21.90;9.20;;;;;;;7.46;76.73;99526.97;5132612;27;20019;-47
2023/01/14 00:58:47;;;;;;;15.13;7.28;;;;;;;7.50;77.44;99528.28;5132556;27;20027;-46
2023/01/14 01:01:14;;;;;;;21.40;8.00;;;;;;;7.63;76.63;99520.81;5132665;27;20023;-46
2023/01/14 01:03:46;;;;;;;23.20;7.90;;;;;;;7.59;76.28;99511.66;5134831;27;20027;-46
2023/01/14 01:06:13;;;;;;;16.45;6.90;;;;;;;7.49;75.73;99513.63;5136867;27;20058;-46
2023/01/14 01:08:39;;;;;;;12.55;5.57;;;;;;;7.54;75.58;99504.28;5135320;27;20105;-46
2023/01/14 01:11:05;;;;;;;20.70;12.23;;;;;;;7.78;75.07;99500.09;5135280;27;20509;-46
2023/01/14 01:13:31;;;;;;;18.40;9.38;;;;;;;8.06;72.20;99503.22;5135283;27;20067;-46
2023/01/14 01:16:02;;;;;;;12.30;6.25;;;;;;;8.04;69.83;99497.31;5136581;27;20483;-46
2023/01/14 01:18:29;;;;;;;13.30;6.97;;;;;;;7.85;70.04;99501.09;5136617;27;20031;-46
2023/01/14 01:21:09;;;;;;;17.55;12.20;;;;;;;7.64;71.33;99508.56;5134883;27;20031;-46
2023/01/14 01:23:40;;;;;;;12.07;5.90;;;;;;;7.63;71.91;99502.53;5135112;27;20400;-46
2023/01/14 01:26:07;;;;;;;18.67;8.65;;;;;;;7.72;72.69;99512.00;5136421;27;20548;-46
2023/01/14 01:28:33;;;;;;;53.88;30.77;;;;;;;7.82;72.79;99508.44;5135011;27;20492;-46
2023/01/14 01:31:04;;;;;;;25.10;19.85;;;;;;;7.86;72.71;99507.94;5134897;27;20031;-46
2023/01/14 01:33:30;;;;;;;39.75;21.67;;;;;;;7.74;71.89;99502.19;5134948;27;20027;-46
2023/01/14 01:36:00;;;;;;;21.15;15.68;;;;;;;7.59;71.14;99496.00;5134880;27;20388;-46
2023/01/14 01:38:25;;;;;;;18.75;10.55;;;;;;;7.47;71.75;99498.09;5134860;27;20026;-46
2023/01/14 01:40:51;;;;;;;20.98;9.10;;;;;;;7.44;72.67;99487.94;5136063;27;20400;-46
2023/01/14 01:43:18;;;;;;;16.88;7.22;;;;;;;7.45;72.69;99492.22;5134668;27;20489;-47
2023/01/14 01:45:47;;;;;;;13.13;6.65;;;;;;;7.39;72.81;99498.06;5134632;27;20504;-46
2023/01/14 01:48:20;;;;;;;12.82;5.10;;;;;;;7.15;72.86;99494.41;5135866;27;20027;-46
2023/01/14 01:50:49;;;;;;;20.13;6.97;;;;;;;6.85;73.83;99500.97;5134554;27;20034;-46
2023/01/14 01:53:16;;;;;;;17.15;6.72;;;;;;;6.69;74.94;99493.06;5134771;27;20019;-46
2023/01/14 01:55:45;;;;;;;18.92;6.95;;;;;;;6.80;75.61;99498.84;5134385;27;20424;-46
2023/01/14 01:58:12;;;;;;;12.32;5.53;;;;;;;6.86;76.41;99494.81;5135797;27;20042;-46
2023/01/14 02:00:38;;;;;;;9.55;5.05;;;;;;;6.99;75.28;99491.75;5135601;27;20034;-46
2023/01/14 02:03:10;;;;;;;12.93;5.95;;;;;;;6.86;73.83;99486.13;5135692;27;20031;-46
2023/01/14 02:05:37;;;;;;;12.23;5.20;;;;;;;6.68;74.12;99486.22;5135626;27;20524;-46
2023/01/14 02:08:03;;;;;;;15.00;7.22;;;;;;;6.56;73.81;99483.03;5134166;27;20466;-46
2023/01/14 02:10:48;;;;;;;18.83;6.38;;;;;;;6.53;74.96;99484.19;5134125;27;20519;-46
2023/01/14 02:14:18;;;;;;;16.48;6.32;;;;;;;6.69;75.30;99485.25;5135067;27;20035;-46
2023/01/14 02:17:02;;;;;;;10.85;4.90;;;;;;;6.99;75.09;99474.28;5095277;28;20114;-46
2023/01/14 02:20:13;;;;;;;9.82;4.47;;;;;;;7.38;74.87;99465.94;5112405;28;20071;-46
2023/01/14 02:23:20;;;;;;;16.25;4.43;;;;;;;7.64;70.98;99458.94;5095222;28;20051;-46
2023/01/14 02:26:03;;;;;;;11.38;5.47;;;;;;;7.45;70.34;99458.25;5112402;28;20066;-46
2023/01/14 02:29:17;;;;;;;8.77;5.38;;;;;;;7.17;70.13;99449.88;5112422;28;20035;-46
2023/01/14 02:32:05;;;;;;;13.93;5.43;;;;;;;7.07;71.78;99446.59;5094204;28;20675;-46
2023/01/14 02:34:48;;;;;;;16.13;5.50;;;;;;;7.07;72.80;99444.78;5112022;28;20489;-46
2023/01/14 02:37:34;;;;;;;20.63;9.90;;;;;;;6.98;73.51;99438.75;5095109;28;20047;-46
2023/01/14 02:40:28;;;;;;;17.77;9.25;;;;;;;6.94;73.85;99449.63;5112187;28;20032;-46
2023/01/14 02:45:59;;;;;;;11.75;5.57;;;;;;;7.05;74.30;99425.06;5112121;28;20034;-46
2023/01/14 02:48:27;;;;;;;14.07;6.20;;;;;;;7.06;73.44;99422.25;5112017;28;20114;-46
2023/01/14 02:50:53;;;;;;;15.88;5.75;;;;;;;7.00;73.93;99410.69;5124862;27;20249;-46
2023/01/14 02:53:20;;;;;;;15.70;6.10;;;;;;;6.97;74.70;99415.41;5133522;27;20076;-46
2023/01/14 02:55:47;;;;;;;14.00;5.32;;;;;;;6.91;73.55;99405.59;5133293;27;20052;-46
2023/01/14 02:58:30;;;;;;;13.65;5.68;;;;;;;6.71;73.57;99410.25;5133258;27;20027;-46
2023/01/14 03:01:20;;;;;;;12.13;4.85;;;;;;;6.60;74.21;99419.19;5133230;27;20119;-46
2023/01/14 03:04:05;;;;;;;13.35;5.13;;;;;;;6.56;74.22;99417.84;5134555;27;20034;-46
2023/01/14 03:06:51;;;;;;;10.02;5.93;;;;;;;6.42;73.56;99424.50;5133077;27;20023;-46
2023/01/14 03:09:20;;;;;;;12.02;5.03;;;;;;;6.19;74.46;99411.97;5133071;27;20027;-46
2023/01/14 03:11:56;;;;;;;11.38;5.60;;;;;;;6.04;75.46;99418.72;5133014;27;20492;-46
2023/01/14 03:14:50;;;;;;;13.27;5.07;;;;;;;5.94;76.26;99420.59;5115916;27;20035;-46
2023/01/14 03:17:42;;;;;;;14.50;5.40;;;;;;;5.97;76.84;99418.50;5132950;27;20069;-46
2023/01/14 03:20:11;;;;;;;18.23;5.03;;;;;;;5.73;75.79;99400.88;5135519;27;20072;-46
2023/01/14 03:22:38;;;;;;;17.80;5.70;;;;;;;5.57;77.58;99383.38;5132703;27;20047;-46
2023/01/14 03:25:06;;;;;;;10.25;4.88;;;;;;;5.37;78.05;99382.72;5132510;27;20027;-46
2023/01/14 03:27:36;;;;;;;15.48;5.57;;;;;;;5.36;78.76;99375.03;5132586;27;20038;-46
2023/01/14 03:30:10;;;;;;;17.13;5.63;;;;;;;5.30;78.69;99362.63;5132678;27;20118;-46
2023/01/14 03:32:45;;;;;;;20.23;5.60;;;;;;;5.36;80.16;99362.84;5133902;27;20046;-46
2023/01/14 03:35:26;;;;;;;13.55;4.47;;;;;;;5.72;80.44;99352.38;5133995;27;20054;-46
2023/01/14 03:37:59;;;;;;;11.27;4.93;;;;;;;5.86;78.29;99358.00;5134137;27;20465;-46
2023/01/14 03:40:28;;;;;;;13.45;5.30;;;;;;;5.70;78.30;99354.31;5133807;27;20110;-46
2023/01/14 03:43:00;;;;;;;10.65;5.65;;;;;;;5.53;77.49;99363.81;5133679;27;20027;-46
2023/01/14 03:45:25;;;;;;;15.05;5.90;;;;;;;5.23;78.36;99367.59;5132398;27;20047;-46
2023/01/14 03:47:51;;;;;;;11.43;4.75;;;;;;;5.24;79.20;99361.44;5133585;27;20478;-46
2023/01/14 03:50:19;;;;;;;15.82;5.00;;;;;;;5.53;78.03;99368.16;5133627;27;20031;-46
2023/01/14 03:52:54;;;;;;;11.02;4.55;;;;;;;5.58;76.66;99371.16;5132249;27;20113;-46
2023/01/14 03:55:22;;;;;;;14.70;4.68;;;;;;;5.51;77.30;99373.53;5115059;27;20118;-46
2023/01/14 03:57:58;;;;;;;17.30;5.07;;;;;;;5.50;77.63;99371.91;5133430;27;20027;-46
2023/01/14 04:00:31;;;;;;;11.32;5.40;;;;;;;5.45;77.28;99357.69;5132094;27;20027;-46
2023/01/14 04:03:00;;;;;;;10.80;5.00;;;;;;;5.55;77.94;99361.03;5132080;27;20035;-46
2023/01/14 04:05:26;;;;;;;14.02;5.53;;;;;;;5.66;78.30;99352.19;5133297;27;20483;-46
2023/01/14 04:07:52;;;;;;;15.68;4.88;;;;;;;5.85;77.43;99344.16;5131888;27;20051;-46
2023/01/14 04:10:18;;;;;;;22.88;4.82;;;;;;;5.98;76.45;99339.38;5133242;27;20051;-46
2023/01/14 04:15:28;;;;;;;17.75;5.00;;;;;;;6.07;75.87;99357.66;5133428;27;20029;-46
2023/01/14 04:17:53;;;;;;;14.40;4.20;;;;;;;6.11;75.94;99351.97;5131769;27;20023;-46
2023/01/14 04:20:19;;;;;;;15.07;4.72;;;;;;;6.26;74.87;99330.53;5131753;27;20059;-46
2023/01/14 04:22:45;;;;;;;18.33;4.70;;;;;;;6.28;74.94;99329.44;5132898;27;20496;-46
2023/01/14 04:25:10;;;;;;;15.85;4.32;;;;;;;6.39;74.63;99326.53;5131673;27;20027;-46
2023/01/14 04:27:36;;;;;;;10.05;4.18;;;;;;;6.31;73.47;99339.53;5131544;27;20538;-46
2023/01/14 04:30:02;;;;;;;13.23;5.07;;;;;;;6.21;74.65;99336.22;5132979;27;20049;-46
2023/01/14 04:32:27;;;;;;;17.35;3.85;;;;;;;6.23;73.85;99341.28;5131545;27;20015;-46
2023/01/14 04:34:53;;;;;;;8.10;3.45;;;;;;;6.11;74.16;99333.72;5132927;27;20031;-46
2023/01/14 04:37:19;;;;;;;12.27;4.60;;;;;;;5.92;73.85;99344.38;5165533;27;20020;-46
2023/01/14 04:39:45;;;;;;;11.95;4.80;;;;;;;5.91;74.23;99348.75;5131500;27;20160;-46
2023/01/14 04:42:26;;;;;;;11.40;4.18;;;;;;;5.85;74.49;99356.34;5131454;27;20114;-46
2023/01/14 04:44:53;;;;;;;12.60;4.05;;;;;;;5.90;75.41;99361.94;5132799;28;20101;-46
2023/01/14 04:47:18;;;;;;;15.05;4.78;;;;;;;6.14;74.97;99364.72;5131395;28;20043;-46
2023/01/14 04:49:44;;;;;;;13.23;4.13;;;;;;;6.18;74.27;99354.81;5131379;28;20069;-46
2023/01/14 04:52:10;;;;;;;18.35;5.00;;;;;;;6.27;74.12;99345.22;5132670;27;20027;-46
2023/01/14 04:54:35;;;;;;;17.33;4.65;;;;;;;6.38;73.81;99339.75;5132661;27;20438;-46
2023/01/14 04:57:01;;;;;;;10.27;4.20;;;;;;;6.26;73.03;99323.56;5132848;28;20060;-46
2023/01/14 04:59:27;;;;;;;11.50;4.50;;;;;;;6.03;72.94;99323.28;5114525;28;20055;-46
2023/01/14 05:01:52;;;;;;;16.00;4.85;;;;;;;5.83;73.77;99306.22;5132568;27;20024;-46
2023/01/14 05:04:18;;;;;;;14.90;4.15;;;;;;;5.64;74.36;99305.44;5132569;27;20038;-46
2023/01/14 05:06:44;;;;;;;11.63;4.68;;;;;;;5.54;75.43;99315.16;5131213;28;20023;-46
2023/01/14 05:09:09;;;;;;;14.00;5.13;;;;;;;5.57;75.96;99304.41;5132522;27;20102;-46
2023/01/14 05:11:35;;;;;;;13.60;5.38;;;;;;;5.66;76.95;99292.28;5132430;28;20027;-46
2023/01/14 05:14:01;;;;;;;13.18;4.53;;;;;;;5.94;76.94;99291.13;5132562;27;20485;-46
2023/01/14 05:16:27;;;;;;;13.50;3.80;;;;;;;6.12;76.13;99293.69;5132482;27;20028;-46
2023/01/14 05:18:53;;;;;;;12.63;4.68;;;;;;;6.30;74.95;99292.75;5131337;28;20035;-46
2023/01/14 05:21:19;;;;;;;17.90;4.30;;;;;;;6.32;74.63;99291.66;5132333;27;20118;-46
2023/01/14 05:23:45;;;;;;;8.38;4.00;;;;;;;6.16;74.10;99283.78;5131111;28;20122;-46
2023/01/14 05:26:11;;;;;;;15.52;4.70;;;;;;;6.01;74.29;99275.72;5130995;28;20381;-46
2023/01/14 05:28:37;;;;;;;13.52;3.45;;;;;;;5.92;75.42;99280.06;5132274;28;20110;-46
2023/01/14 05:31:04;;;;;;;16.23;9.07;;;;;;;5.84;75.62;99274.81;5130994;28;20027;-46
2023/01/14 05:33:29;;;;;;;12.18;4.63;;;;;;;5.84;75.31;99267.00;5132271;27;20041;-46
2023/01/14 05:35:57;;;;;;;16.50;6.32;;;;;;;5.93;75.50;99273.03;5132315;27;20518;-46
2023/01/14 05:38:23;;;;;;;15.32;8.35;;;;;;;5.90;73.98;99283.78;5132257;27;20434;-46
2023/01/14 05:40:48;;;;;;;15.02;4.63;;;;;;;5.74;73.57;99295.75;5132236;27;20027;-46
2023/01/14 05:46:06;;;;;;;11.50;5.47;;;;;;;5.74;75.86;99295.75;5132247;28;20084;-46
2023/01/14 05:48:31;;;;;;;16.88;4.45;;;;;;;6.04;75.27;99291.06;5115134;27;20084;-46
2023/01/14 05:50:58;;;;;;;12.27;4.65;;;;;;;6.25;74.48;99287.22;5134567;27;20443;-46
2023/01/14 05:53:26;;;;;;;8.30;4.28;;;;;;;6.22;72.95;99282.31;5134500;27;20471;-46
2023/01/14 05:55:53;;;;;;;19.38;4.47;;;;;;;5.95;73.70;99265.91;5135806;27;20023;-46
2023/01/14 05:58:20;;;;;;;13.88;4.55;;;;;;;5.71;74.04;99277.81;5134435;27;20080;-46
2023/01/14 06:06:28;;;;;;;13.55;4.43;;;;;;;5.14;73.82;99303.44;5134910;27;20111;-46
2023/01/14 06:08:59;;;;;;;12.07;4.68;;;;;;;5.11;74.39;99293.34;5134269;27;20023;-46
2023/01/14 06:11:26;;;;;;;15.30;3.60;;;;;;;5.15;75.60;99279.06;5134602;27;20064;-46
2023/01/14 06:13:56;;;;;;;8.52;3.78;;;;;;;5.23;75.69;99260.91;5134197;27;20492;-46
2023/01/14 06:16:27;;;;;;;16.38;5.53;;;;;;;5.18;75.78;99245.75;5135521;27;20025;-46
2023/01/14 06:18:53;;;;;;;18.05;5.72;;;;;;;5.30;78.12;99237.72;5135385;27;20088;-46
2023/01/14 06:21:21;;;;;;;13.65;4.13;;;;;;;5.65;76.38;99264.59;5133742;27;20035;-46
2023/01/14 06:23:48;;;;;;;17.80;5.38;;;;;;;5.46;75.81;99302.88;5133949;27;20392;-46
2023/01/14 06:26:16;;;;;;;15.75;5.95;;;;;;;5.30;75.83;99326.19;5135241;27;20019;-46
2023/01/14 06:28:42;;;;;;;26.30;5.32;;;;;;;5.37;76.97;99341.06;5135170;27;20047;-46
2023/01/14 06:31:14;;;;;;;20.88;7.97;;;;;;;5.61;76.88;99321.38;5135145;27;20020;-46
2023/01/14 06:33:40;;;;;;;22.88;6.15;;;;;;;5.67;76.50;99317.34;5133871;27;20031;-46
2023/01/14 06:36:08;;;;;;;18.85;4.70;;;;;;;5.82;76.77;99305.41;5133769;27;20031;-46
2023/01/14 06:38:35;;;;;;;15.25;4.22;;;;;;;5.74;75.26;99289.72;5135021;27;20027;-46
2023/01/14 06:41:02;;;;;;;24.77;12.70;;;;;;;5.63;75.38;99290.78;5133623;27;20571;-46
2023/01/14 06:43:28;;;;;;;14.98;7.93;;;;;;;5.65;74.67;99295.84;5134907;27;20064;-46
2023/01/14 06:45:55;;;;;;;13.95;5.75;;;;;;;5.67;73.15;99286.91;5133542;27;20492;-46
2023/01/14 06:48:22;;;;;;;11.02;3.78;;;;;;;5.68;71.97;99295.56;5116221;27;20027;-46
2023/01/14 06:50:48;;;;;;;18.27;7.13;;;;;;;5.53;71.91;99287.47;5134791;27;20015;-46
2023/01/14 06:53:13;;;;;;;13.30;6.80;;;;;;;5.37;72.91;99291.63;5133422;27;20050;-46
2023/01/14 06:55:39;;;;;;;10.23;4.60;;;;;;;5.23;73.57;99296.53;5134652;27;20019;-46
2023/01/14 06:58:04;;;;;;;19.45;11.25;;;;;;;5.24;72.75;99280.75;5134688;27;20131;-46
2023/01/14 07:00:30;;;;;;;18.25;11.32;;;;;;;5.12;73.16;99281.97;5134016;27;20023;-46
2023/01/14 07:02:56;;;;;;;11.02;4.75;;;;;;;5.10;75.06;99274.31;5134509;27;20073;-46
2023/01/14 07:05:22;;;;;;;16.48;5.18;;;;;;;5.32;75.48;99269.59;5134450;27;20023;-46
2023/01/14 07:07:48;;;;;;;13.80;4.97;;;;;;;5.31;75.35;99265.34;5134318;27;20061;-46
2023/01/14 07:10:16;;;;;;;19.23;5.60;;;;;;;5.34;75.75;99265.06;5132994;27;20561;-46
2023/01/14 07:12:50;;;;;;;13.70;5.70;;;;;;;5.28;74.84;99255.25;5132997;27;20051;-46
2023/01/14 07:15:19;;;;;;;16.20;5.88;;;;;;;5.27;76.10;99238.84;5134302;27;20110;-46
2023/01/14 07:17:46;;;;;;;18.38;6.20;;;;;;;5.36;76.70;99242.31;5132911;27;20054;-46
2023/01/14 07:20:12;;;;;;;20.08;8.52;;;;;;;5.48;76.83;99250.69;5132794;27;20507;-46
2023/01/14 07:22:38;;;;;;;15.88;6.13;;;;;;;5.53;75.52;99241.44;5133938;27;20108;-46
2023/01/14 07:25:05;;;;;;;13.23;6.00;;;;;;;5.51;75.44;99237.34;5134088;27;20015;-46
2023/01/14 07:27:31;;;;;;;11.60;6.00;;;;;;;5.54;75.37;99247.47;5150183;27;20580;-46
2023/01/14 07:29:58;;;;;;;11.57;5.82;;;;;;;5.44;75.09;99239.75;5132659;27;20295;-46
2023/01/14 07:32:24;;;;;;;13.75;5.82;;;;;;;5.35;75.47;99232.84;5132598;27;20027;-46
2023/01/14 07:34:50;;;;;;;14.90;5.60;;;;;;;5.24;74.94;99226.13;5133844;27;20489;-46
2023/01/14 07:37:16;;;;;;;13.73;5.80;;;;;;;5.16;75.10;99236.47;5133834;27;20057;-46
2023/01/14 07:39:41;;;;;;;18.40;6.32;;;;;;;5.09;76.24;99233.66;5133851;27;20034;-46
2023/01/14 07:42:07;;;;;;;10.27;5.05;;;;;;;5.12;75.68;99230.75;5132397;27;20381;-46
2023/01/14 07:44:33;;;;;;;14.63;6.13;;;;;;;5.10;75.29;99224.06;5133728;27;20488;-46
2023/01/14 07:46:59;;;;;;;13.43;5.68;;;;;;;5.10;76.05;99224.88;5133727;27;20110;-46
2023/01/14 07:49:25;;;;;;;13.13;6.72;;;;;;;5.28;76.93;99232.66;5133563;27;20023;-46
2023/01/14 07:51:52;;;;;;;12.98;6.50;;;;;;;5.59;76.79;99238.22;5132336;27;20027;-46
2023/01/14 07:54:18;;;;;;;16.65;7.18;;;;;;;5.94;76.37;99230.41;5132211;27;20123;-46
2023/01/14 07:56:45;;;;;;;12.00;4.75;;;;;;;6.19;74.56;99229.53;5133488;27;20019;-46
2023/01/14 07:59:11;;;;;;;16.60;6.72;;;;;;;6.13;73.17;99231.97;5132115;27;20023;-46
2023/01/14 08:01:37;;;;;;;15.35;5.30;;;;;;;5.90;73.69;99227.28;5132086;27;20510;-46
2023/01/14 08:04:03;;;;;;;12.73;6.43;;;;;;;5.91;74.72;99234.13;5133374;27;20030;-46
2023/01/14 08:06:29;;;;;;;21.70;11.23;;;;;;;6.12;75.07;99232.94;5133243;27;20101;-46
2023/01/14 08:08:54;;;;;;;17.98;5.32;;;;;;;6.30;74.98;99231.03;5133196;27;20023;-46
2023/01/14 08:11:20;;;;;;;26.58;15.20;;;;;;;6.51;74.30;99237.59;5131370;27;20066;-46
2023/01/14 08:13:49;;;;;;;17.95;6.80;;;;;;;6.59;73.47;99237.59;5132886;27;20020;-46
2023/01/14 08:16:15;;;;;;;14.38;5.25;;;;;;;6.62;71.96;99226.03;5133170;27;20023;-46
2023/01/14 08:18:41;;;;;;;16.50;6.97;;;;;;;6.56;72.54;99220.50;5133127;27;20041;-46
2023/01/14 08:21:09;;;;;;;11.98;6.22;;;;;;;6.65;71.81;99213.50;5131532;27;20118;-46
2023/01/14 08:23:35;;;;;;;16.48;6.03;;;;;;;6.55;71.03;99202.41;5133142;27;20122;-46
2023/01/14 08:26:02;;;;;;;18.48;7.00;;;;;;;6.48;72.77;99185.75;5133063;27;20027;-46
2023/01/14 08:28:28;;;;;;;14.43;6.55;;;;;;;6.70;72.13;99189.53;5131691;27;20027;-46
2023/01/14 08:31:02;;;;;;;21.00;8.40;;;;;;;6.77;71.62;99208.78;5131683;27;20016;-46
2023/01/14 08:33:27;;;;;;;12.30;7.00;;;;;;;6.55;70.78;99211.03;5131623;27;20031;-46
2023/01/14 08:35:53;;;;;;;12.27;6.40;;;;;;;6.48;71.77;99204.84;5131543;27;20015;-46
2023/01/14 08:38:19;;;;;;;12.30;6.53;;;;;;;6.41;71.93;99216.88;5131505;27;20034;-46
2023/01/14 08:40:47;;;;;;;21.45;9.10;;;;;;;6.56;72.77;99220.50;5132868;27;20063;-46
2023/01/14 08:43:14;;;;;;;15.07;6.68;;;;;;;6.71;71.16;99215.44;5132712;27;20081;-46
2023/01/14 08:45:42;;;;;;;12.65;5.88;;;;;;;6.62;71.45;99207.78;5131461;28;20083;-46
2023/01/14 08:48:07;;;;;;;15.18;6.00;;;;;;;6.52;71.90;99213.13;5132893;27;20137;-46
2023/01/14 08:50:33;;;;;;;14.57;5.55;;;;;;;6.44;72.55;99219.19;5131427;28;20111;-46
2023/01/14 08:52:59;;;;;;;19.27;6.97;;;;;;;6.48;72.38;99224.88;5132770;27;20058;-46
2023/01/14 08:55:25;;;;;;;16.02;7.25;;;;;;;6.53;72.01;99218.19;5132907;28;20012;-46
2023/01/14 08:57:51;;;;;;;11.95;7.20;;;;;;;6.52;71.45;99220.97;5132940;27;20023;-46
2023/01/14 09:00:17;;;;;;;16.92;8.57;;;;;;;6.58;71.78;99215.94;5132627;27;20019;-46
2023/01/14 09:02:43;;;;;;;17.10;9.07;;;;;;;6.63;71.22;99219.84;5131253;28;20054;-46
2023/01/14 09:05:08;;;;;;;29.58;10.65;;;;;;;6.61;72.05;99212.19;5131185;28;20023;-46
2023/01/14 09:18:31;;;;;;;19.92;8.07;;;;;;;6.96;70.80;99177.13;5132894;28;20035;-46
2023/01/14 09:20:56;;;;;;;21.60;8.15;;;;;;;6.94;71.15;99168.66;5132119;28;20019;-46
2023/01/14 09:23:22;;;;;;;26.42;8.70;;;;;;;7.24;72.58;99168.91;5167043;27;20458;-46
2023/01/14 09:25:48;;;;;;;21.73;8.10;;;;;;;7.89;70.96;99173.13;5136425;27;20030;-46
2023/01/14 09:28:13;;;;;;;15.65;7.40;;;;;;;8.35;68.29;99174.97;5136295;27;20015;-46
2023/01/14 09:30:39;;;;;;;22.60;6.72;;;;;;;8.48;66.54;99172.63;5136360;27;20098;-46
2023/01/14 09:33:06;;;;;;;20.67;7.30;;;;;;;8.29;66.27;99163.41;5136252;27;20019;-46
2023/01/14 09:35:32;;;;;;;19.52;7.95;;;;;;;8.10;66.67;99171.69;5136231;27;20035;-46
2023/01/14 09:37:58;;;;;;;19.60;8.35;;;;;;;8.20;66.79;99170.47;5136209;27;20507;-46
2023/01/14 09:40:24;;;;;;;18.02;8.65;;;;;;;8.45;66.36;99162.53;5136149;27;20031;-46
2023/01/14 09:42:51;;;;;;;22.35;7.47;;;;;;;8.70;65.09;99160.53;5136104;27;20042;-46
2023/01/14 09:45:24;;;;;;;9.90;5.07;;;;;;;8.93;64.56;99163.13;5134684;27;20047;-46
2023/01/14 09:47:51;;;;;;;13.02;5.03;;;;;;;9.11;64.12;99156.72;5136039;27;20537;-47
2023/01/14 09:50:26;;;;;;;11.10;5.05;;;;;;;9.33;62.73;99162.88;5117458;27;20037;-46
2023/01/14 09:53:14;;;;;;;17.30;4.30;;;;;;;9.60;61.73;99150.94;5136096;27;20484;-47
2023/01/14 09:55:48;;;;;;;8.02;3.95;;;;;;;9.87;60.16;99146.81;5136172;27;20087;-47
2023/01/14 09:58:37;;;;;;;11.68;4.97;;;;;;;9.93;60.12;99145.28;5134624;27;20031;-47
2023/01/14 10:01:33;;;;;;;14.20;5.00;;;;;;;10.22;60.07;99135.69;5135797;27;20031;-46
2023/01/14 10:04:11;;;;;;;;;;;;;;;10.29;59.09;99139.22;5134888;27;20030;-46
2023/01/14 10:06:39;;;;;;;12.57;5.38;;;;;;;10.23;59.86;99132.88;5134635;27;19907;-46
2023/01/14 10:09:18;;;;;;;14.45;6.63;;;;;;;10.39;60.63;99137.09;5135726;27;20035;-46
2023/01/14 10:11:46;;;;;;;18.23;9.48;;;;;;;10.40;61.26;99143.97;5135840;27;20023;-46
2023/01/14 10:14:24;;;;;;;16.20;10.18;;;;;;;10.43;62.54;99150.66;5135459;27;20102;-46
2023/01/14 10:16:57;;;;;;;12.13;6.45;;;;;;;10.47;61.61;99149.28;5135534;27;20105;-46
2023/01/14 10:19:39;;;;;;;13.48;6.82;;;;;;;10.63;62.15;99135.91;5135494;27;20072;-47
2023/01/14 10:22:11;;;;;;;20.85;7.07;;;;;;;10.85;62.18;99133.25;5133837;27;20043;-46
2023/01/14 10:24:41;;;;;;;11.60;5.90;;;;;;;11.00;62.43;99121.63;5135336;27;20038;-47
2023/01/14 10:27:15;;;;;;;16.73;7.55;;;;;;;10.84;61.15;99116.66;5134210;27;20050;-47
2023/01/14 10:29:42;;;;;;;17.48;7.07;;;;;;;10.82;61.83;99120.50;5135201;27;20027;-46
2023/01/14 10:32:14;;;;;;;14.27;8.65;;;;;;;10.89;61.72;99111.66;5135118;27;20015;-47
2023/01/14 10:34:42;;;;;;;21.90;8.38;;;;;;;11.07;62.38;99102.50;5132868;27;20034;-47
2023/01/14 10:37:10;;;;;;;13.90;6.43;;;;;;;11.31;61.56;99101.22;5133733;27;20404;-47
2023/01/14 10:39:42;;;;;;;24.98;8.27;;;;;;;11.60;61.60;99095.66;5135055;27;20060;-47
2023/01/14 10:42:11;;;;;;;14.48;11.07;;;;;;;12.24;60.37;99090.19;5133676;27;20027;-47
2023/01/14 10:44:42;;;;;;;25.10;13.40;;;;;;;13.02;59.35;99089.53;5133983;27;20509;-47
2023/01/14 10:47:12;;;;;;;21.88;7.68;;;;;;;13.68;58.45;99073.53;5134858;27;20088;-46
2023/01/14 10:49:44;;;;;;;17.52;6.07;;;;;;;14.39;56.70;99066.38;5133702;27;20029;-47
2023/01/14 10:52:23;;;;;;;11.80;6.63;;;;;;;15.18;55.48;99056.06;5134815;27;20102;-47
2023/01/14 10:55:01;;;;;;;10.10;6.00;;;;;;;15.86;53.43;99049.75;5134695;27;20114;-47
2023/01/14 10:57:34;;;;;;;14.77;6.28;;;;;;;16.20;52.38;99041.28;5133427;27;20023;-47
2023/01/14 11:00:01;;;;;;;11.48;5.78;;;;;;;16.28;51.64;99028.53;5134515;27;20087;-45
2023/01/14 11:02:26;;;;;;;13.43;5.43;;;;;;;16.50;51.89;99033.25;5133213;27;20161;-45
2023/01/14 11:04:52;;;;;;;13.18;4.85;;;;;;;16.65;52.10;99032.81;5134580;27;20051;-45
2023/01/14 11:07:33;;;;;;;7.00;4.15;;;;;;;16.96;50.07;99021.03;5133139;27;20030;-45
2023/01/14 11:10:02;;;;;;;11.15;4.95;;;;;;;17.58;50.01;99018.53;5134427;27;20053;-45
2023/01/14 11:12:32;;;;;;;12.10;4.93;;;;;;;18.73;47.86;99002.31;5134433;27;20049;-45
2023/01/14 11:14:59;;;;;;;13.65;4.53;;;;;;;19.86;44.69;99002.78;5134331;27;20027;-45
2023/01/14 11:17:26;;;;;;;10.45;4.63;;;;;;;21.33;41.92;98995.94;5132936;27;20027;-45
2023/01/14 11:20:19;;;;;;;11.02;4.03;;;;;;;21.95;40.34;98991.47;5134106;27;20031;-45
2023/01/14 11:22:45;;;;;;;10.98;4.13;;;;;;;21.58;39.12;98984.50;5133878;27;20117;-45
2023/01/14 11:25:23;;;;;;;10.80;3.38;;;;;;;21.29;38.96;98994.84;5134056;27;20111;-45
2023/01/14 11:27:50;;;;;;;9.80;4.85;;;;;;;20.94;39.02;98990.97;5132584;27;20168;-44
2023/01/14 11:30:22;;;;;;;15.05;4.20;;;;;;;20.17;40.02;98995.06;5134254;27;20124;-45
2023/01/14 11:32:50;;;;;;;10.00;3.63;;;;;;;19.70;40.28;99001.84;5133949;27;20098;-45
2023/01/14 11:35:20;;;;;;;13.45;3.25;;;;;;;19.07;40.49;99001.41;5115628;27;20030;-44
2023/01/14 11:37:48;;;;;;;6.60;2.40;;;;;;;18.39;40.72;99000.75;5133916;27;20431;-45
2023/01/14 11:40:23;;;;;;;11.13;2.90;;;;;;;17.73;40.30;98998.63;5133795;27;20501;-44
2023/01/14 11:42:50;;;;;;;14.55;3.40;;;;;;;17.30;41.64;98992.78;5134098;27;20094;-45
2023/01/14 11:45:18;;;;;;;97.68;89.53;;;;;;;16.97;42.03;98975.72;5133610;27;20491;-44
2023/01/14 11:47:56;;;;;;;14.43;8.52;;;;;;;16.82;43.27;98971.97;5132467;27;20022;-44
2023/01/14 11:50:24;;;;;;;16.73;4.70;;;;;;;16.70;42.84;98959.53;5132306;27;20027;-44
2023/01/14 11:53:06;;;;;;;11.50;3.05;;;;;;;16.60;40.62;98935.47;5133573;27;20019;-45
2023/01/14 11:55:38;;;;;;;11.05;2.78;;;;;;;16.58;38.52;98940.19;5132219;27;20134;-44
2023/01/14 11:58:30;;;;;;;5.53;1.73;;;;;;;16.48;38.12;98943.44;5133491;27;20484;-45
2023/01/14 12:01:04;;;;;;;8.38;1.48;;;;;;;16.25;37.79;98928.34;5132132;27;20601;-45
2023/01/14 12:03:49;;;;;;;2.65;1.10;;;;;;;16.03;37.85;98928.09;5133479;27;20023;-45
2023/01/14 12:06:20;;;;;;;2.90;1.00;;;;;;;15.81;37.84;98938.44;5133301;27;20034;-45
2023/01/14 12:08:52;;;;;;;4.03;1.23;;;;;;;15.65;38.39;98929.28;5133514;27;20299;-44
2023/01/14 12:11:32;;;;;;;7.55;1.65;;;;;;;15.62;38.99;98936.91;5133617;27;20031;-45